createdAt,value
2019-03-01T00:00:16.158Z,20.72
2019-03-01T00:01:16.161Z,20.69
2019-03-01T00:02:16.125Z,20.70
2019-03-01T00:03:16.105Z,20.77
2019-03-01T00:04:16.113Z,20.72
2019-03-01T00:05:16.102Z,20.72
2019-03-01T00:06:16.076Z,20.77
2019-03-01T00:07:16.096Z,20.72
2019-03-01T00:08:16.093Z,20.72
2019-03-01T00:09:16.071Z,20.70
2019-03-01T00:10:16.058Z,20.70
2019-03-01T00:11:16.018Z,20.69
2019-03-01T00:12:16.055Z,20.75
2019-03-01T00:13:16.020Z,20.72
2019-03-01T00:14:16.003Z,20.62
2019-03-01T00:15:16.029Z,20.75
2019-03-01T00:16:15.987Z,20.67
2019-03-01T00:17:15.954Z,20.69
2019-03-01T00:18:15.948Z,20.69
2019-03-01T00:19:15.938Z,20.70
2019-03-01T00:20:15.989Z,20.72
2019-03-01T00:21:15.911Z,20.66
2019-03-01T00:22:15.897Z,20.72
2019-03-01T00:23:15.899Z,20.74
2019-03-01T00:24:15.882Z,20.69
2019-03-01T00:25:15.982Z,20.74
2019-03-01T00:26:15.858Z,20.78
2019-03-01T00:27:15.845Z,20.72
2019-03-01T00:28:15.850Z,20.72
2019-03-01T00:29:15.831Z,20.70
2019-03-01T00:30:15.884Z,20.74
2019-03-01T00:31:15.866Z,20.75
2019-03-01T00:32:15.809Z,20.70
2019-03-01T00:33:15.801Z,20.74
2019-03-01T00:34:15.772Z,20.74
2019-03-01T00:35:15.817Z,20.70
2019-03-01T00:36:15.780Z,20.70
2019-03-01T00:37:15.799Z,20.72
2019-03-01T00:38:15.787Z,20.69
2019-03-01T00:39:15.752Z,20.70
2019-03-01T00:40:15.699Z,20.77
2019-03-01T00:41:15.705Z,20.75
2019-03-01T00:42:15.690Z,20.75
2019-03-01T00:43:15.677Z,20.69
2019-03-01T00:44:15.669Z,20.69
2019-03-01T00:45:15.651Z,20.63
2019-03-01T00:46:15.664Z,20.77
2019-03-01T00:47:15.670Z,20.80
2019-03-01T00:48:15.610Z,20.72
2019-03-01T00:49:15.617Z,20.69
2019-03-01T00:50:15.604Z,20.77
2019-03-01T00:51:15.601Z,20.66
2019-03-01T00:52:15.603Z,20.75
2019-03-01T00:53:15.569Z,20.63
2019-03-01T00:54:15.551Z,20.66
2019-03-01T00:55:15.621Z,20.66
2019-03-01T00:56:15.535Z,20.62
2019-03-01T00:57:15.525Z,20.60
2019-03-01T00:58:15.498Z,20.70
2019-03-01T00:59:15.502Z,20.66
2019-03-01T01:00:15.482Z,20.69
2019-03-01T01:01:15.496Z,20.69
2019-03-01T01:02:15.472Z,20.70
2019-03-01T01:03:15.471Z,20.69
2019-03-01T01:04:15.435Z,20.66
2019-03-01T01:05:15.444Z,20.70
2019-03-01T01:06:15.419Z,20.66
2019-03-01T01:07:15.398Z,20.70
2019-03-01T01:08:15.393Z,20.69
2019-03-01T01:09:15.390Z,20.77
2019-03-01T01:10:15.401Z,20.67
2019-03-01T01:11:15.381Z,20.69
2019-03-01T01:12:15.353Z,20.69
2019-03-01T01:13:15.338Z,20.70
2019-03-01T01:14:15.323Z,20.67
2019-03-01T01:15:15.324Z,20.75
2019-03-01T01:16:15.377Z,20.72
2019-03-01T01:17:15.292Z,20.66
2019-03-01T01:18:15.287Z,20.70
2019-03-01T01:19:15.263Z,20.81
2019-03-01T01:20:15.284Z,20.78
2019-03-01T01:21:15.263Z,20.80
2019-03-01T01:22:15.247Z,20.77
2019-03-01T01:23:15.248Z,20.72
2019-03-01T01:24:15.240Z,20.80
2019-03-01T01:25:15.317Z,20.78
2019-03-01T01:26:15.221Z,20.69
2019-03-01T01:27:15.291Z,20.74
2019-03-01T01:28:15.176Z,20.80
2019-03-01T01:29:15.189Z,20.69
2019-03-01T01:30:15.197Z,20.69
2019-03-01T01:31:15.190Z,20.72
2019-03-01T01:32:15.163Z,20.74
2019-03-01T01:33:15.119Z,20.75
2019-03-01T01:34:15.125Z,20.67
2019-03-01T01:35:15.103Z,20.69
2019-03-01T01:36:15.139Z,20.66
2019-03-01T01:37:15.102Z,20.66
2019-03-01T01:38:15.134Z,20.75
2019-03-01T01:39:15.049Z,20.66
2019-03-01T01:40:15.074Z,20.66
2019-03-01T01:41:15.089Z,20.65
2019-03-01T01:42:15.030Z,20.77
2019-03-01T01:43:15.009Z,20.72
2019-03-01T01:44:15.020Z,20.70
2019-03-01T01:45:15.014Z,20.75
2019-03-01T01:46:14.981Z,20.69
2019-03-01T01:47:14.957Z,20.70
2019-03-01T01:48:14.951Z,20.69
2019-03-01T01:49:14.962Z,20.70
2019-03-01T01:50:14.955Z,20.70
2019-03-01T01:51:14.950Z,20.65
2019-03-01T01:52:14.928Z,20.69
2019-03-01T01:53:14.890Z,20.72
2019-03-01T01:54:14.958Z,20.72
2019-03-01T01:55:14.926Z,20.75
2019-03-01T01:56:14.855Z,20.75
2019-03-01T01:57:14.849Z,20.70
2019-03-01T01:58:14.839Z,20.75
2019-03-01T01:59:14.894Z,20.70
2019-03-01T02:00:14.812Z,20.69
2019-03-01T02:01:14.797Z,20.80
2019-03-01T02:02:14.865Z,20.70
2019-03-01T02:03:14.769Z,20.72
2019-03-01T02:04:14.779Z,20.72
2019-03-01T02:05:14.749Z,20.75
2019-03-01T02:06:14.735Z,20.72
2019-03-01T02:07:14.741Z,20.75
2019-03-01T02:08:14.733Z,20.69
2019-03-01T02:09:14.712Z,20.70
2019-03-01T02:10:14.735Z,20.70
2019-03-01T02:11:14.760Z,20.63
2019-03-01T02:12:14.770Z,20.67
2019-03-01T02:13:14.683Z,20.70
2019-03-01T02:14:14.669Z,20.74
2019-03-01T02:15:14.657Z,20.70
2019-03-01T02:16:14.631Z,20.74
2019-03-01T02:17:14.640Z,20.69
2019-03-01T02:18:14.609Z,20.69
2019-03-01T02:19:14.594Z,20.69
2019-03-01T02:20:14.599Z,20.66
2019-03-01T02:21:14.627Z,20.66
2019-03-01T02:22:14.593Z,20.67
2019-03-01T02:23:14.602Z,20.66
2019-03-01T02:24:14.545Z,20.63
2019-03-01T02:25:14.553Z,20.74
2019-03-01T02:26:14.513Z,20.65
2019-03-01T02:27:14.543Z,20.66
2019-03-01T02:28:14.500Z,20.70
2019-03-01T02:29:14.491Z,20.67
2019-03-01T02:30:14.495Z,20.62
2019-03-01T02:31:14.505Z,20.67
2019-03-01T02:32:14.470Z,20.63
2019-03-01T02:33:14.465Z,20.66
2019-03-01T02:34:14.445Z,20.60
2019-03-01T02:35:14.422Z,20.69
2019-03-01T02:36:14.471Z,20.62
2019-03-01T02:37:14.413Z,20.60
2019-03-01T02:38:14.391Z,20.65
2019-03-01T02:39:14.384Z,20.66
2019-03-01T02:40:14.401Z,20.67
2019-03-01T02:41:14.412Z,20.70
2019-03-01T02:42:14.365Z,20.67
2019-03-01T02:43:14.435Z,20.69
2019-03-01T02:44:14.322Z,20.72
2019-03-01T02:45:14.351Z,20.70
2019-03-01T02:46:14.297Z,20.67
2019-03-01T02:47:14.293Z,20.72
2019-03-01T02:48:14.280Z,20.63
2019-03-01T02:49:14.302Z,20.74
2019-03-01T02:50:14.391Z,20.74
2019-03-01T02:51:14.256Z,20.62
2019-03-01T02:52:14.238Z,20.65
2019-03-01T02:53:14.244Z,20.65
2019-03-01T02:54:14.213Z,20.60
2019-03-01T02:55:14.281Z,20.69
2019-03-01T02:56:14.225Z,20.63
2019-03-01T02:57:14.178Z,20.65
2019-03-01T02:58:14.181Z,20.63
2019-03-01T02:59:14.165Z,20.60
2019-03-01T03:00:14.199Z,20.62
2019-03-01T03:01:14.143Z,20.63
2019-03-01T03:02:14.127Z,20.67
2019-03-01T03:03:14.129Z,20.67
2019-03-01T03:04:14.106Z,20.62
2019-03-01T03:05:14.114Z,20.69
2019-03-01T03:06:14.075Z,20.69
2019-03-01T03:07:14.069Z,20.60
2019-03-01T03:08:14.115Z,20.55
2019-03-01T03:09:14.043Z,20.62
2019-03-01T03:10:14.046Z,20.65
2019-03-01T03:11:14.032Z,20.59
2019-03-01T03:12:14.030Z,20.60
2019-03-01T03:13:14.043Z,20.58
2019-03-01T03:14:14.020Z,20.52
2019-03-01T03:15:13.969Z,20.55
2019-03-01T03:16:13.974Z,20.51
2019-03-01T03:17:13.948Z,20.59
2019-03-01T03:18:13.946Z,20.65
2019-03-01T03:19:13.923Z,20.63
2019-03-01T03:20:13.966Z,20.63
2019-03-01T03:21:13.976Z,20.63
2019-03-01T03:22:13.895Z,20.65
2019-03-01T03:23:13.902Z,20.62
2019-03-01T03:24:13.871Z,20.69
2019-03-01T03:25:13.931Z,20.66
2019-03-01T03:26:13.861Z,20.59
2019-03-01T03:27:13.845Z,20.58
2019-03-01T03:28:13.877Z,20.65
2019-03-01T03:29:13.819Z,20.65
2019-03-01T03:30:13.807Z,20.65
2019-03-01T03:31:13.905Z,20.67
2019-03-01T03:32:13.799Z,20.62
2019-03-01T03:33:13.773Z,20.66
2019-03-01T03:34:13.788Z,20.60
2019-03-01T03:35:13.851Z,20.67
2019-03-01T03:36:13.777Z,20.60
2019-03-01T03:37:13.727Z,20.62
2019-03-01T03:38:13.708Z,20.60
2019-03-01T03:39:13.729Z,20.67
2019-03-01T03:40:13.701Z,20.67
2019-03-01T03:41:13.685Z,20.74
2019-03-01T03:42:13.669Z,20.72
2019-03-01T03:43:13.664Z,20.69
2019-03-01T03:44:13.663Z,20.74
2019-03-01T03:45:13.637Z,20.69
2019-03-01T03:46:13.670Z,20.75
2019-03-01T03:47:13.637Z,20.72
2019-03-01T03:48:13.604Z,20.63
2019-03-01T03:49:13.613Z,20.63
2019-03-01T03:50:13.579Z,20.65
2019-03-01T03:51:13.593Z,20.60
2019-03-01T03:52:13.573Z,20.63
2019-03-01T03:53:13.666Z,20.66
2019-03-01T03:54:13.546Z,20.70
2019-03-01T03:55:13.598Z,20.62
2019-03-01T03:56:13.558Z,20.59
2019-03-01T03:57:13.509Z,20.69
2019-03-01T03:58:13.495Z,20.65
2019-03-01T03:59:13.484Z,20.63
2019-03-01T04:00:13.464Z,20.65
2019-03-01T04:01:13.462Z,20.63
2019-03-01T04:02:13.536Z,20.70
2019-03-01T04:03:13.436Z,20.69
2019-03-01T04:04:13.428Z,20.69
2019-03-01T04:05:13.416Z,20.62
2019-03-01T04:06:13.401Z,20.63
2019-03-01T04:07:13.388Z,20.70
2019-03-01T04:08:13.379Z,20.63
2019-03-01T04:09:13.394Z,20.67
2019-03-01T04:10:13.356Z,20.65
2019-03-01T04:11:13.389Z,20.67
2019-03-01T04:12:13.358Z,20.63
2019-03-01T04:13:13.353Z,20.63
2019-03-01T04:14:13.435Z,20.63
2019-03-01T04:15:13.319Z,20.63
2019-03-01T04:16:13.316Z,20.62
2019-03-01T04:17:13.323Z,20.62
2019-03-01T04:18:13.267Z,20.67
2019-03-01T04:19:13.309Z,20.66
2019-03-01T04:20:13.298Z,20.65
2019-03-01T04:21:13.269Z,20.63
2019-03-01T04:22:13.249Z,20.62
2019-03-01T04:23:13.257Z,20.65
2019-03-01T04:24:13.223Z,20.69
2019-03-01T04:25:13.322Z,20.63
2019-03-01T04:26:13.267Z,20.59
2019-03-01T04:27:13.217Z,20.70
2019-03-01T04:28:13.159Z,20.62
2019-03-01T04:29:13.220Z,20.63
2019-03-01T04:30:13.154Z,20.60
2019-03-01T04:31:13.127Z,20.67
2019-03-01T04:32:13.128Z,20.70
2019-03-01T04:33:13.104Z,20.56
2019-03-01T04:34:13.151Z,20.62
2019-03-01T04:35:13.105Z,20.63
2019-03-01T04:36:13.076Z,20.60
2019-03-01T04:37:13.063Z,20.66
2019-03-01T04:38:13.059Z,20.66
2019-03-01T04:39:13.029Z,20.62
2019-03-01T04:40:13.135Z,20.66
2019-03-01T04:41:13.016Z,20.62
2019-03-01T04:42:12.997Z,20.70
2019-03-01T04:43:12.988Z,20.62
2019-03-01T04:44:13.018Z,20.67
2019-03-01T04:45:13.008Z,20.62
2019-03-01T04:46:12.970Z,20.62
2019-03-01T04:47:12.963Z,20.63
2019-03-01T04:48:12.938Z,20.63
2019-03-01T04:49:12.917Z,20.62
2019-03-01T04:50:12.925Z,20.59
2019-03-01T04:51:12.909Z,20.56
2019-03-01T04:52:12.908Z,20.65
2019-03-01T04:53:12.904Z,20.63
2019-03-01T04:54:12.890Z,20.52
2019-03-01T04:55:12.952Z,20.56
2019-03-01T04:56:12.875Z,20.59
2019-03-01T04:57:12.836Z,20.59
2019-03-01T04:58:12.863Z,20.62
2019-03-01T04:59:12.812Z,20.63
2019-03-01T05:00:12.804Z,20.69
2019-03-01T05:01:12.783Z,20.63
2019-03-01T05:02:12.782Z,20.60
2019-03-01T05:03:12.760Z,20.65
2019-03-01T05:04:12.767Z,20.66
2019-03-01T05:05:12.758Z,20.65
2019-03-01T05:06:12.802Z,20.63
2019-03-01T05:07:12.720Z,20.66
2019-03-01T05:08:12.703Z,20.69
2019-03-01T05:09:12.701Z,20.63
2019-03-01T05:10:12.695Z,20.63
2019-03-01T05:11:12.685Z,20.63
2019-03-01T05:12:12.662Z,20.62
2019-03-01T05:13:12.683Z,20.67
2019-03-01T05:14:12.639Z,20.66
2019-03-01T05:15:14.567Z,20.62
2019-03-01T05:16:12.621Z,20.63
2019-03-01T05:17:12.613Z,20.74
2019-03-01T05:18:12.617Z,20.65
2019-03-01T05:19:12.587Z,20.66
2019-03-01T05:20:12.593Z,20.77
2019-03-01T05:21:12.563Z,20.67
2019-03-01T05:22:12.556Z,20.67
2019-03-01T05:23:12.618Z,20.60
2019-03-01T05:24:12.568Z,20.67
2019-03-01T05:25:12.683Z,20.62
2019-03-01T05:26:12.564Z,20.67
2019-03-01T05:27:12.492Z,20.58
2019-03-01T05:28:12.497Z,20.62
2019-03-01T05:29:12.470Z,20.63
2019-03-01T05:30:12.480Z,20.58
2019-03-01T05:31:12.453Z,20.60
2019-03-01T05:32:12.438Z,20.60
2019-03-01T05:33:12.443Z,20.56
2019-03-01T05:34:12.454Z,20.59
2019-03-01T05:35:12.412Z,20.59
2019-03-01T05:36:12.453Z,20.65
2019-03-01T05:37:12.453Z,20.62
2019-03-01T05:38:21.311Z,20.63
2019-03-01T05:39:13.379Z,20.55
2019-03-01T05:40:12.394Z,20.62
2019-03-01T05:41:12.475Z,20.56
2019-03-01T05:42:12.332Z,20.62
2019-03-01T05:43:12.318Z,20.58
2019-03-01T05:44:12.320Z,20.59
2019-03-01T05:45:12.314Z,20.58
2019-03-01T05:46:12.347Z,20.52
2019-03-01T05:47:12.337Z,20.59
2019-03-01T05:48:12.258Z,20.52
2019-03-01T05:49:12.278Z,20.60
2019-03-01T05:50:12.269Z,20.65
2019-03-01T05:51:12.274Z,20.56
2019-03-01T05:52:12.217Z,20.59
2019-03-01T05:53:12.210Z,20.58
2019-03-01T05:54:12.201Z,20.63
2019-03-01T05:55:12.291Z,20.52
2019-03-01T05:56:12.194Z,20.58
2019-03-01T05:57:12.166Z,20.66
2019-03-01T05:58:16.499Z,20.66
2019-03-01T05:59:12.164Z,20.63
2019-03-01T06:00:12.140Z,20.66
2019-03-01T06:01:12.154Z,20.58
2019-03-01T06:02:12.134Z,20.66
2019-03-01T06:03:12.150Z,20.63
2019-03-01T06:04:12.081Z,20.62
2019-03-01T06:05:12.087Z,20.63
2019-03-01T06:06:12.120Z,20.59
2019-03-01T06:07:12.116Z,20.63
2019-03-01T06:08:12.116Z,20.70
2019-03-01T06:09:12.034Z,20.59
2019-03-01T06:10:12.021Z,20.60
2019-03-01T06:11:12.073Z,20.65
2019-03-01T06:12:11.993Z,20.59
2019-03-01T06:13:11.985Z,20.60
2019-03-01T06:14:11.974Z,20.59
2019-03-01T06:15:11.989Z,20.65
2019-03-01T06:16:11.964Z,20.63
2019-03-01T06:17:12.075Z,20.60
2019-03-01T06:18:11.958Z,20.62
2019-03-01T06:19:11.955Z,20.65
2019-03-01T06:20:11.933Z,20.60
2019-03-01T06:21:11.901Z,20.67
2019-03-01T06:22:11.901Z,20.66
2019-03-01T06:23:11.874Z,20.65
2019-03-01T06:24:11.891Z,20.60
2019-03-01T06:25:11.904Z,20.60
2019-03-01T06:26:11.893Z,20.65
2019-03-01T06:27:11.846Z,20.58
2019-03-01T06:28:11.822Z,20.50
2019-03-01T06:29:11.858Z,20.58
2019-03-01T06:30:11.813Z,20.59
2019-03-01T06:31:11.850Z,20.59
2019-03-01T06:32:11.797Z,20.56
2019-03-01T06:33:11.762Z,20.55
2019-03-01T06:34:11.754Z,20.56
2019-03-01T06:35:11.745Z,20.63
2019-03-01T06:36:11.729Z,20.55
2019-03-01T06:37:11.787Z,20.65
2019-03-01T06:38:11.756Z,20.59
2019-03-01T06:39:11.712Z,20.63
2019-03-01T06:40:11.702Z,20.59
2019-03-01T06:41:11.692Z,20.59
2019-03-01T06:42:11.676Z,20.67
2019-03-01T06:43:11.716Z,20.63
2019-03-01T06:44:11.649Z,20.67
2019-03-01T06:45:11.625Z,20.62
2019-03-01T06:46:11.641Z,20.63
2019-03-01T06:47:11.627Z,20.69
2019-03-01T06:48:11.597Z,20.65
2019-03-01T06:49:11.591Z,20.59
2019-03-01T06:50:13.063Z,20.63
2019-03-01T06:51:11.576Z,20.65
2019-03-01T06:52:11.567Z,20.67
2019-03-01T06:53:11.565Z,20.66
2019-03-01T06:54:11.543Z,20.63
2019-03-01T06:55:11.522Z,20.65
2019-03-01T06:56:11.553Z,20.65
2019-03-01T06:57:11.518Z,20.65
2019-03-01T06:58:11.513Z,20.70
2019-03-01T06:59:11.487Z,20.69
2019-03-01T07:00:11.510Z,20.69
2019-03-01T07:01:11.455Z,20.70
2019-03-01T07:02:11.450Z,20.72
2019-03-01T07:03:11.442Z,20.70
2019-03-01T07:04:11.513Z,20.65
2019-03-01T07:05:11.436Z,20.69
2019-03-01T07:06:11.395Z,20.62
2019-03-01T07:07:11.479Z,20.69
2019-03-01T07:08:11.376Z,20.62
2019-03-01T07:09:11.369Z,20.69
2019-03-01T07:10:11.376Z,20.63
2019-03-01T07:11:11.346Z,20.60
2019-03-01T07:12:11.330Z,20.56
2019-03-01T07:13:11.340Z,20.59
2019-03-01T07:14:11.328Z,20.63
2019-03-01T07:15:11.295Z,20.56
2019-03-01T07:16:11.284Z,20.52
2019-03-01T07:17:11.273Z,20.51
2019-03-01T07:18:11.274Z,20.62
2019-03-01T07:19:11.257Z,20.58
2019-03-01T07:20:12.660Z,20.55
2019-03-01T07:21:11.233Z,20.55
2019-03-01T07:22:11.220Z,20.59
2019-03-01T07:23:11.245Z,20.56
2019-03-01T07:24:11.358Z,20.56
2019-03-01T07:25:11.274Z,20.58
2019-03-01T07:26:11.181Z,20.52
2019-03-01T07:27:12.404Z,20.58
2019-03-01T07:28:11.175Z,20.52
2019-03-01T07:29:11.171Z,20.55
2019-03-01T07:30:11.145Z,20.56
2019-03-01T07:31:11.130Z,20.58
2019-03-01T07:32:11.117Z,20.55
2019-03-01T07:33:11.187Z,20.55
2019-03-01T07:34:11.107Z,20.62
2019-03-01T07:35:11.086Z,20.55
2019-03-01T07:36:11.100Z,20.63
2019-03-01T07:37:11.055Z,20.59
2019-03-01T07:38:11.081Z,20.60
2019-03-01T07:39:11.046Z,20.65
2019-03-01T07:40:11.023Z,20.70
2019-03-01T07:41:11.012Z,20.75
2019-03-01T07:42:11.073Z,20.72
2019-03-01T07:43:11.021Z,20.74
2019-03-01T07:44:10.974Z,20.66
2019-03-01T07:45:11.030Z,20.72
2019-03-01T07:46:10.950Z,20.77
2019-03-01T07:47:10.949Z,20.72
2019-03-01T07:48:10.971Z,20.70
2019-03-01T07:49:10.920Z,20.67
2019-03-01T07:50:10.906Z,20.67
2019-03-01T07:51:10.935Z,20.72
2019-03-01T07:52:10.898Z,20.67
2019-03-01T07:53:10.907Z,20.72
2019-03-01T07:54:13.379Z,20.67
2019-03-01T07:55:11.922Z,20.70
2019-03-01T07:56:10.853Z,20.78
2019-03-01T07:57:11.428Z,20.78
2019-03-01T07:58:10.836Z,20.78
2019-03-01T07:59:10.816Z,20.75
2019-03-01T08:00:14.021Z,20.77
2019-03-01T08:01:10.792Z,20.80
2019-03-01T08:02:10.806Z,20.81
2019-03-01T08:03:11.792Z,20.81
2019-03-01T08:04:10.757Z,20.81
2019-03-01T08:05:10.792Z,20.81
2019-03-01T08:06:13.459Z,20.78
2019-03-01T08:07:10.723Z,20.80
2019-03-01T08:08:10.834Z,20.80
2019-03-01T08:09:10.701Z,20.84
2019-03-01T08:10:10.703Z,20.84
2019-03-01T08:11:10.694Z,20.81
2019-03-01T08:12:10.745Z,20.75
2019-03-01T08:13:10.652Z,20.81
2019-03-01T08:14:10.889Z,20.82
2019-03-01T08:15:10.630Z,20.82
2019-03-01T08:16:10.621Z,20.77
2019-03-01T08:17:10.622Z,20.84
2019-03-01T08:18:10.700Z,20.85
2019-03-01T08:19:10.598Z,20.84
2019-03-01T08:20:10.599Z,20.90
2019-03-01T08:21:11.445Z,20.78
2019-03-01T08:22:10.563Z,20.85
2019-03-01T08:23:10.584Z,20.82
2019-03-01T08:24:11.101Z,20.84
2019-03-01T08:25:10.640Z,20.84
2019-03-01T08:26:10.511Z,20.85
2019-03-01T08:27:11.154Z,20.84
2019-03-01T08:28:10.487Z,20.81
2019-03-01T08:29:10.495Z,20.85
2019-03-01T08:30:11.328Z,20.88
2019-03-01T08:31:10.452Z,20.81
2019-03-01T08:32:10.447Z,20.88
2019-03-01T08:33:10.429Z,20.84
2019-03-01T08:34:10.438Z,20.87
2019-03-01T08:35:10.466Z,20.81
2019-03-01T08:36:10.402Z,20.82
2019-03-01T08:37:10.393Z,20.92
2019-03-01T08:38:10.416Z,20.93
2019-03-01T08:39:10.422Z,20.93
2019-03-01T08:40:11.527Z,20.97
2019-03-01T08:41:10.344Z,20.97
2019-03-01T08:42:10.335Z,20.96
2019-03-01T08:43:13.000Z,21.03
2019-03-01T08:44:10.319Z,20.95
2019-03-01T08:45:10.341Z,21.06
2019-03-01T08:46:10.517Z,21.02
2019-03-01T08:47:10.277Z,21.00
2019-03-01T08:48:10.268Z,20.87
2019-03-01T08:49:11.309Z,20.97
2019-03-01T08:50:10.250Z,20.84
2019-03-01T08:51:10.288Z,20.92
2019-03-01T08:52:10.240Z,20.95
2019-03-01T08:53:11.514Z,20.85
2019-03-01T08:54:10.221Z,20.92
2019-03-01T08:55:10.276Z,21.03
2019-03-01T08:56:11.053Z,20.97
2019-03-01T08:57:10.231Z,20.97
2019-03-01T08:58:10.152Z,20.99
2019-03-01T08:59:10.164Z,21.00
2019-03-01T09:00:10.137Z,20.88
2019-03-01T09:01:10.122Z,20.96
2019-03-01T09:02:11.909Z,21.11
2019-03-01T09:03:10.113Z,21.09
2019-03-01T09:04:13.302Z,20.97
2019-03-01T09:05:11.074Z,21.11
2019-03-01T09:06:10.109Z,20.99
2019-03-01T09:07:10.062Z,20.99
2019-03-01T09:08:10.050Z,21.05
2019-03-01T09:09:10.038Z,21.02
2019-03-01T09:10:10.085Z,21.09
2019-03-01T09:11:10.370Z,21.02
2019-03-01T09:12:10.018Z,20.95
2019-03-01T09:13:09.991Z,20.96
2019-03-01T09:14:09.997Z,21.00
2019-03-01T09:15:10.016Z,21.03
2019-03-01T09:16:09.955Z,20.99
2019-03-01T09:17:09.964Z,20.96
2019-03-01T09:18:11.551Z,21.02
2019-03-01T09:19:09.935Z,21.02
2019-03-01T09:20:09.935Z,20.90
2019-03-01T09:21:12.951Z,21.03
2019-03-01T09:22:09.891Z,20.96
2019-03-01T09:23:21.184Z,20.96
2019-03-01T09:24:10.889Z,20.97
2019-03-01T09:25:09.933Z,21.02
2019-03-01T09:26:09.874Z,20.97
2019-03-01T09:27:09.839Z,21.00
2019-03-01T09:28:09.831Z,21.05
2019-03-01T09:29:13.013Z,21.02
2019-03-01T09:30:10.816Z,20.96
2019-03-01T09:31:09.798Z,20.92
2019-03-01T09:32:09.795Z,20.97
2019-03-01T09:33:09.781Z,20.95
2019-03-01T09:34:09.777Z,20.97
2019-03-01T09:35:09.797Z,20.92
2019-03-01T09:36:09.737Z,20.87
2019-03-01T09:37:09.745Z,20.95
2019-03-01T09:38:11.356Z,20.90
2019-03-01T09:39:09.711Z,20.96
2019-03-01T09:40:09.699Z,20.93
2019-03-01T09:41:09.679Z,20.88
2019-03-01T09:42:12.419Z,20.84
2019-03-01T09:43:10.692Z,20.90
2019-03-01T09:44:09.657Z,20.82
2019-03-01T09:45:10.429Z,20.85
2019-03-01T09:46:09.628Z,20.84
2019-03-01T09:47:09.635Z,20.96
2019-03-01T09:48:12.242Z,20.84
2019-03-01T09:49:09.595Z,20.95
2019-03-01T09:50:09.619Z,20.96
2019-03-01T09:51:10.722Z,20.82
2019-03-01T09:52:09.579Z,20.88
2019-03-01T09:53:09.569Z,20.82
2019-03-01T09:54:10.267Z,20.92
2019-03-01T09:55:09.525Z,20.85
2019-03-01T09:56:12.729Z,20.97
2019-03-01T09:57:12.384Z,20.84
2019-03-01T09:58:10.505Z,20.93
2019-03-01T09:59:09.478Z,20.88
2019-03-01T10:00:09.507Z,20.96
2019-03-01T10:01:09.469Z,20.92
2019-03-01T10:02:09.450Z,20.92
2019-03-01T10:03:09.441Z,20.82
2019-03-01T10:04:09.427Z,20.90
2019-03-01T10:05:09.443Z,20.93
2019-03-01T10:06:09.450Z,20.84
2019-03-01T10:07:09.396Z,20.88
2019-03-01T10:08:09.388Z,20.88
2019-03-01T10:09:09.370Z,20.85
2019-03-01T10:10:09.363Z,20.81
2019-03-01T10:11:09.360Z,20.80
2019-03-01T10:12:09.348Z,20.84
2019-03-01T10:13:09.338Z,20.85
2019-03-01T10:14:09.332Z,20.77
2019-03-01T10:15:09.308Z,20.87
2019-03-01T10:16:09.344Z,20.87
2019-03-01T10:17:09.277Z,20.84
2019-03-01T10:18:09.269Z,20.85
2019-03-01T10:19:09.287Z,20.88
2019-03-01T10:20:09.253Z,20.93
2019-03-01T10:21:09.258Z,20.85
2019-03-01T10:22:09.225Z,20.95
2019-03-01T10:23:09.222Z,20.96
2019-03-01T10:24:09.218Z,20.82
2019-03-01T10:25:09.204Z,20.88
2019-03-01T10:26:13.777Z,20.87
2019-03-01T10:27:09.182Z,20.82
2019-03-01T10:28:09.157Z,20.88
2019-03-01T10:29:09.159Z,20.92
2019-03-01T10:30:09.137Z,20.82
2019-03-01T10:31:09.132Z,20.84
2019-03-01T10:32:09.116Z,20.85
2019-03-01T10:33:09.116Z,20.84
2019-03-01T10:34:09.113Z,20.82
2019-03-01T10:35:09.127Z,20.87
2019-03-01T10:36:09.086Z,20.87
2019-03-01T10:37:09.066Z,20.82
2019-03-01T10:38:09.049Z,20.80
2019-03-01T10:39:09.045Z,20.85
2019-03-01T10:40:09.029Z,20.82
2019-03-01T10:41:09.049Z,20.77
2019-03-01T10:42:09.013Z,20.87
2019-03-01T10:43:08.994Z,20.77
2019-03-01T10:44:08.980Z,20.77
2019-03-01T10:45:08.977Z,20.74
2019-03-01T10:46:08.973Z,20.72
2019-03-01T10:47:08.958Z,20.69
2019-03-01T10:48:08.958Z,20.72
2019-03-01T10:49:08.954Z,20.70
2019-03-01T10:50:08.921Z,20.70
2019-03-01T10:51:08.915Z,20.70
2019-03-01T10:52:08.902Z,20.62
2019-03-01T10:53:08.925Z,20.67
2019-03-01T10:54:08.871Z,20.69
2019-03-01T10:55:08.878Z,20.70
2019-03-01T10:56:08.908Z,20.63
2019-03-01T10:57:08.848Z,20.66
2019-03-01T10:58:08.837Z,20.75
2019-03-01T10:59:08.832Z,20.67
2019-03-01T11:00:08.847Z,20.80
2019-03-01T11:01:08.862Z,20.70
2019-03-01T11:02:08.805Z,20.69
2019-03-01T11:03:08.775Z,20.67
2019-03-01T11:04:08.808Z,20.72
2019-03-01T11:05:08.777Z,20.75
2019-03-01T11:06:08.786Z,20.77
2019-03-01T11:07:08.754Z,20.75
2019-03-01T11:08:08.737Z,20.75
2019-03-01T11:09:08.734Z,20.77
2019-03-01T11:10:08.699Z,20.74
2019-03-01T11:11:08.697Z,20.66
2019-03-01T11:12:08.699Z,20.72
2019-03-01T11:13:08.692Z,20.67
2019-03-01T11:14:08.651Z,20.75
2019-03-01T11:15:08.643Z,20.77
2019-03-01T11:16:08.707Z,20.78
2019-03-01T11:17:08.657Z,20.77
2019-03-01T11:18:08.640Z,20.77
2019-03-01T11:19:08.685Z,20.74
2019-03-01T11:20:08.586Z,20.84
2019-03-01T11:21:08.573Z,20.80
2019-03-01T11:22:08.569Z,20.82
2019-03-01T11:23:08.553Z,20.84
2019-03-01T11:24:08.549Z,20.85
2019-03-01T11:25:08.533Z,20.87
2019-03-01T11:26:08.588Z,20.84
2019-03-01T11:27:12.884Z,20.81
2019-03-01T11:28:10.439Z,20.84
2019-03-01T11:29:08.589Z,20.78
2019-03-01T11:30:08.474Z,20.72
2019-03-01T11:31:08.461Z,20.69
2019-03-01T11:32:08.474Z,20.74
2019-03-01T11:33:08.452Z,20.70
2019-03-01T11:34:08.433Z,20.67
2019-03-01T11:35:08.441Z,20.75
2019-03-01T11:36:08.403Z,20.74
2019-03-01T11:37:08.402Z,20.70
2019-03-01T11:38:08.404Z,20.70
2019-03-01T11:39:08.435Z,20.81
2019-03-01T11:40:08.366Z,20.81
2019-03-01T11:41:08.373Z,20.75
2019-03-01T11:42:08.378Z,20.81
2019-03-01T11:43:08.419Z,20.78
2019-03-01T11:44:08.351Z,20.80
2019-03-01T11:45:08.303Z,20.82
2019-03-01T11:46:08.297Z,20.82
2019-03-01T11:47:08.292Z,20.77
2019-03-01T11:48:08.272Z,20.77
2019-03-01T11:49:08.263Z,20.78
2019-03-01T11:50:08.318Z,20.78
2019-03-01T11:51:08.286Z,20.81
2019-03-01T11:52:08.319Z,20.78
2019-03-01T11:53:08.219Z,20.78
2019-03-01T11:54:08.231Z,20.85
2019-03-01T11:55:08.196Z,20.80
2019-03-01T11:56:08.421Z,20.78
2019-03-01T11:57:08.186Z,20.77
2019-03-01T11:58:08.191Z,20.81
2019-03-01T11:59:08.148Z,20.81
2019-03-01T12:00:08.138Z,20.80
2019-03-01T12:01:16.854Z,20.75
2019-03-01T12:02:09.268Z,20.80
2019-03-01T12:03:08.134Z,20.80
2019-03-01T12:04:08.098Z,20.75
2019-03-01T12:05:08.124Z,20.78
2019-03-01T12:06:08.120Z,20.74
2019-03-01T12:07:08.088Z,20.75
2019-03-01T12:08:08.060Z,20.77
2019-03-01T12:09:08.043Z,20.74
2019-03-01T12:10:08.056Z,20.80
2019-03-01T12:11:08.083Z,20.75
2019-03-01T12:12:08.033Z,20.81
2019-03-01T12:13:08.014Z,20.81
2019-03-01T12:14:07.984Z,20.78
2019-03-01T12:15:07.971Z,20.72
2019-03-01T12:16:07.966Z,20.74
2019-03-01T12:17:07.966Z,20.77
2019-03-01T12:18:07.955Z,20.80
2019-03-01T12:19:07.932Z,20.69
2019-03-01T12:20:07.919Z,20.67
2019-03-01T12:21:07.933Z,20.74
2019-03-01T12:22:16.757Z,20.66
2019-03-01T12:23:08.894Z,20.77
2019-03-01T12:24:07.883Z,20.75
2019-03-01T12:25:07.890Z,20.72
2019-03-01T12:26:07.948Z,20.69
2019-03-01T12:27:07.838Z,20.62
2019-03-01T12:28:07.847Z,20.65
2019-03-01T12:29:07.887Z,20.67
2019-03-01T12:30:07.859Z,20.69
2019-03-01T12:31:07.795Z,20.59
2019-03-01T12:32:07.796Z,20.62
2019-03-01T12:33:07.783Z,20.63
2019-03-01T12:34:07.781Z,20.63
2019-03-01T12:35:07.770Z,20.63
2019-03-01T12:36:07.755Z,20.60
2019-03-01T12:37:07.731Z,20.67
2019-03-01T12:38:07.725Z,20.62
2019-03-01T12:39:09.776Z,20.65
2019-03-01T12:40:07.708Z,20.67
2019-03-01T12:41:07.684Z,20.74
2019-03-01T12:42:07.671Z,20.66
2019-03-01T12:43:07.704Z,20.60
2019-03-01T12:44:07.647Z,20.70
2019-03-01T12:45:07.637Z,20.70
2019-03-01T12:46:07.627Z,20.70
2019-03-01T12:47:07.617Z,20.69
2019-03-01T12:48:07.678Z,20.70
2019-03-01T12:49:07.721Z,20.75
2019-03-01T12:50:07.581Z,20.69
2019-03-01T12:51:07.582Z,20.70
2019-03-01T12:52:07.565Z,20.74